sensor_id;sensor_type;location;lat;lon;timestamp;P1;durP1;ratioP1;P2;durP2;ratioP2
81591;SDS011;71014;53.394;6.724;2023-07-13T00:01:39;6.30;;;2.55;;
81591;SDS011;71014;53.394;6.724;2023-07-13T00:04:06;6.97;;;2.72;;
81591;SDS011;71014;53.394;6.724;2023-07-13T00:06:32;10.55;;;3.15;;
81591;SDS011;71014;53.394;6.724;2023-07-13T00:08:58;6.78;;;2.53;;
81591;SDS011;71014;53.394;6.724;2023-07-13T00:13:51;7.53;;;2.33;;
81591;SDS011;71014;53.394;6.724;2023-07-13T00:16:17;10.00;;;2.45;;
81591;SDS011;71014;53.394;6.724;2023-07-13T00:18:44;6.53;;;2.53;;
81591;SDS011;71014;53.394;6.724;2023-07-13T00:23:37;9.80;;;2.40;;
81591;SDS011;71014;53.394;6.724;2023-07-13T00:26:04;8.30;;;3.00;;
81591;SDS011;71014;53.394;6.724;2023-07-13T00:28:30;10.60;;;3.00;;
81591;SDS011;71014;53.394;6.724;2023-07-13T00:30:57;7.55;;;2.45;;
81591;SDS011;71014;53.394;6.724;2023-07-13T00:33:23;11.50;;;3.08;;
81591;SDS011;71014;53.394;6.724;2023-07-13T00:35:49;10.27;;;2.33;;
81591;SDS011;71014;53.394;6.724;2023-07-13T00:40:41;7.63;;;2.78;;
81591;SDS011;71014;53.394;6.724;2023-07-13T00:43:15;4.70;;;2.17;;
81591;SDS011;71014;53.394;6.724;2023-07-13T00:48:09;7.97;;;2.83;;
81591;SDS011;71014;53.394;6.724;2023-07-13T00:50:35;10.95;;;2.72;;
81591;SDS011;71014;53.394;6.724;2023-07-13T00:53:02;10.50;;;3.75;;
81591;SDS011;71014;53.394;6.724;2023-07-13T00:55:28;5.90;;;2.28;;
81591;SDS011;71014;53.394;6.724;2023-07-13T00:57:55;9.93;;;3.00;;
81591;SDS011;71014;53.394;6.724;2023-07-13T01:00:21;8.07;;;2.55;;
81591;SDS011;71014;53.394;6.724;2023-07-13T01:02:48;10.07;;;2.38;;
81591;SDS011;71014;53.394;6.724;2023-07-13T01:05:19;15.95;;;2.80;;
81591;SDS011;71014;53.394;6.724;2023-07-13T01:07:45;6.43;;;2.83;;
81591;SDS011;71014;53.394;6.724;2023-07-13T01:10:12;9.02;;;3.35;;
81591;SDS011;71014;53.394;6.724;2023-07-13T01:15:05;7.57;;;2.30;;
81591;SDS011;71014;53.394;6.724;2023-07-13T01:17:34;5.28;;;2.10;;
81591;SDS011;71014;53.394;6.724;2023-07-13T01:20:01;8.80;;;2.97;;
81591;SDS011;71014;53.394;6.724;2023-07-13T01:22:27;7.13;;;2.53;;
81591;SDS011;71014;53.394;6.724;2023-07-13T01:24:54;4.88;;;1.92;;
81591;SDS011;71014;53.394;6.724;2023-07-13T01:27:22;9.73;;;2.33;;
81591;SDS011;71014;53.394;6.724;2023-07-13T01:29:49;10.27;;;2.17;;
81591;SDS011;71014;53.394;6.724;2023-07-13T01:32:18;8.57;;;2.70;;
81591;SDS011;71014;53.394;6.724;2023-07-13T01:34:49;5.68;;;2.25;;
81591;SDS011;71014;53.394;6.724;2023-07-13T01:37:15;9.30;;;2.35;;
81591;SDS011;71014;53.394;6.724;2023-07-13T01:39:41;7.60;;;2.63;;
81591;SDS011;71014;53.394;6.724;2023-07-13T01:42:07;6.55;;;2.42;;
81591;SDS011;71014;53.394;6.724;2023-07-13T01:44:33;10.15;;;3.05;;
81591;SDS011;71014;53.394;6.724;2023-07-13T01:47:00;7.00;;;2.45;;
81591;SDS011;71014;53.394;6.724;2023-07-13T01:49:26;6.13;;;2.38;;
81591;SDS011;71014;53.394;6.724;2023-07-13T01:51:52;6.28;;;2.90;;
81591;SDS011;71014;53.394;6.724;2023-07-13T01:54:18;9.02;;;3.03;;
81591;SDS011;71014;53.394;6.724;2023-07-13T01:56:44;6.47;;;2.15;;
81591;SDS011;71014;53.394;6.724;2023-07-13T01:59:10;10.48;;;2.53;;
81591;SDS011;71014;53.394;6.724;2023-07-13T02:01:36;8.68;;;1.98;;
81591;SDS011;71014;53.394;6.724;2023-07-13T02:04:03;8.52;;;2.08;;
81591;SDS011;71014;53.394;6.724;2023-07-13T02:06:29;3.90;;;1.92;;
81591;SDS011;71014;53.394;6.724;2023-07-13T02:08:55;6.28;;;1.95;;
81591;SDS011;71014;53.394;6.724;2023-07-13T02:11:21;13.73;;;2.50;;
81591;SDS011;71014;53.394;6.724;2023-07-13T02:13:47;4.65;;;1.80;;
81591;SDS011;71014;53.394;6.724;2023-07-13T02:16:13;7.30;;;2.90;;
81591;SDS011;71014;53.394;6.724;2023-07-13T02:18:40;7.95;;;2.10;;
81591;SDS011;71014;53.394;6.724;2023-07-13T02:21:06;9.13;;;2.67;;
81591;SDS011;71014;53.394;6.724;2023-07-13T02:23:32;5.65;;;2.25;;
81591;SDS011;71014;53.394;6.724;2023-07-13T02:25:59;7.32;;;2.75;;
81591;SDS011;71014;53.394;6.724;2023-07-13T02:28:25;8.70;;;3.35;;
81591;SDS011;71014;53.394;6.724;2023-07-13T02:30:51;9.55;;;2.17;;
81591;SDS011;71014;53.394;6.724;2023-07-13T02:33:17;5.85;;;2.08;;
81591;SDS011;71014;53.394;6.724;2023-07-13T02:35:43;6.63;;;2.58;;
81591;SDS011;71014;53.394;6.724;2023-07-13T02:38:09;3.90;;;1.90;;
81591;SDS011;71014;53.394;6.724;2023-07-13T02:40:36;5.75;;;1.90;;
81591;SDS011;71014;53.394;6.724;2023-07-13T02:43:03;3.33;;;1.75;;
81591;SDS011;71014;53.394;6.724;2023-07-13T02:45:29;6.78;;;2.15;;
81591;SDS011;71014;53.394;6.724;2023-07-13T02:47:55;6.53;;;1.70;;
81591;SDS011;71014;53.394;6.724;2023-07-13T02:50:21;3.42;;;1.35;;
81591;SDS011;71014;53.394;6.724;2023-07-13T02:52:47;3.92;;;1.73;;
81591;SDS011;71014;53.394;6.724;2023-07-13T02:55:13;5.25;;;2.10;;
81591;SDS011;71014;53.394;6.724;2023-07-13T02:57:39;3.85;;;1.50;;
81591;SDS011;71014;53.394;6.724;2023-07-13T03:00:06;3.25;;;1.30;;
81591;SDS011;71014;53.394;6.724;2023-07-13T03:02:33;6.20;;;1.80;;
81591;SDS011;71014;53.394;6.724;2023-07-13T03:04:59;2.67;;;1.50;;
81591;SDS011;71014;53.394;6.724;2023-07-13T03:07:25;3.08;;;1.17;;
81591;SDS011;71014;53.394;6.724;2023-07-13T03:09:55;3.67;;;1.20;;
81591;SDS011;71014;53.394;6.724;2023-07-13T03:12:21;4.10;;;1.17;;
81591;SDS011;71014;53.394;6.724;2023-07-13T03:14:47;3.88;;;1.60;;
81591;SDS011;71014;53.394;6.724;2023-07-13T03:17:13;7.10;;;1.50;;
81591;SDS011;71014;53.394;6.724;2023-07-13T03:19:39;4.55;;;1.40;;
81591;SDS011;71014;53.394;6.724;2023-07-13T03:22:06;3.42;;;1.20;;
81591;SDS011;71014;53.394;6.724;2023-07-13T03:24:32;3.25;;;1.40;;
81591;SDS011;71014;53.394;6.724;2023-07-13T03:29:24;2.90;;;1.08;;
81591;SDS011;71014;53.394;6.724;2023-07-13T03:31:50;3.53;;;1.58;;
81591;SDS011;71014;53.394;6.724;2023-07-13T03:34:16;6.93;;;1.70;;
81591;SDS011;71014;53.394;6.724;2023-07-13T03:36:43;7.75;;;1.65;;
81591;SDS011;71014;53.394;6.724;2023-07-13T03:39:09;3.25;;;1.65;;
81591;SDS011;71014;53.394;6.724;2023-07-13T03:41:35;3.42;;;1.13;;
81591;SDS011;71014;53.394;6.724;2023-07-13T03:44:01;5.63;;;1.42;;
81591;SDS011;71014;53.394;6.724;2023-07-13T03:46:27;4.32;;;1.15;;
81591;SDS011;71014;53.394;6.724;2023-07-13T03:48:53;6.80;;;1.73;;
81591;SDS011;71014;53.394;6.724;2023-07-13T03:51:20;5.63;;;1.42;;
81591;SDS011;71014;53.394;6.724;2023-07-13T03:53:46;5.68;;;1.73;;
81591;SDS011;71014;53.394;6.724;2023-07-13T03:56:13;3.33;;;1.42;;
81591;SDS011;71014;53.394;6.724;2023-07-13T03:58:40;5.38;;;1.70;;
81591;SDS011;71014;53.394;6.724;2023-07-13T04:01:08;3.78;;;1.60;;
81591;SDS011;71014;53.394;6.724;2023-07-13T04:03:35;6.50;;;1.85;;
81591;SDS011;71014;53.394;6.724;2023-07-13T04:06:02;6.22;;;2.08;;
81591;SDS011;71014;53.394;6.724;2023-07-13T04:08:32;3.97;;;1.98;;
81591;SDS011;71014;53.394;6.724;2023-07-13T04:10:58;5.22;;;2.75;;
81591;SDS011;71014;53.394;6.724;2023-07-13T04:13:25;11.57;;;2.53;;
81591;SDS011;71014;53.394;6.724;2023-07-13T04:15:52;6.20;;;2.30;;
81591;SDS011;71014;53.394;6.724;2023-07-13T04:18:18;6.45;;;2.13;;
81591;SDS011;71014;53.394;6.724;2023-07-13T04:20:45;8.10;;;2.17;;
81591;SDS011;71014;53.394;6.724;2023-07-13T04:23:11;4.50;;;1.98;;
81591;SDS011;71014;53.394;6.724;2023-07-13T04:25:37;5.70;;;2.78;;
81591;SDS011;71014;53.394;6.724;2023-07-13T04:28:04;9.10;;;2.13;;
81591;SDS011;71014;53.394;6.724;2023-07-13T04:30:31;5.85;;;2.50;;
81591;SDS011;71014;53.394;6.724;2023-07-13T04:32:57;9.85;;;2.63;;
81591;SDS011;71014;53.394;6.724;2023-07-13T04:35:23;11.57;;;3.38;;
81591;SDS011;71014;53.394;6.724;2023-07-13T04:37:49;9.25;;;2.53;;
81591;SDS011;71014;53.394;6.724;2023-07-13T04:40:19;10.52;;;2.85;;
81591;SDS011;71014;53.394;6.724;2023-07-13T04:42:45;13.63;;;3.25;;
81591;SDS011;71014;53.394;6.724;2023-07-13T04:45:12;3.80;;;2.22;;
81591;SDS011;71014;53.394;6.724;2023-07-13T04:47:38;8.10;;;2.25;;
81591;SDS011;71014;53.394;6.724;2023-07-13T04:50:05;6.97;;;2.53;;
81591;SDS011;71014;53.394;6.724;2023-07-13T04:52:31;10.55;;;3.13;;
81591;SDS011;71014;53.394;6.724;2023-07-13T04:54:58;12.90;;;2.78;;
81591;SDS011;71014;53.394;6.724;2023-07-13T04:57:25;10.13;;;2.83;;
81591;SDS011;71014;53.394;6.724;2023-07-13T04:59:51;7.38;;;2.60;;
81591;SDS011;71014;53.394;6.724;2023-07-13T05:02:17;8.48;;;2.53;;
81591;SDS011;71014;53.394;6.724;2023-07-13T05:04:45;7.32;;;2.67;;
81591;SDS011;71014;53.394;6.724;2023-07-13T05:07:12;9.52;;;2.53;;
81591;SDS011;71014;53.394;6.724;2023-07-13T05:09:38;11.32;;;3.00;;
81591;SDS011;71014;53.394;6.724;2023-07-13T05:12:05;8.82;;;2.60;;
81591;SDS011;71014;53.394;6.724;2023-07-13T05:16:57;7.15;;;2.08;;
81591;SDS011;71014;53.394;6.724;2023-07-13T05:19:24;8.95;;;3.17;;
81591;SDS011;71014;53.394;6.724;2023-07-13T05:21:50;10.65;;;2.90;;
81591;SDS011;71014;53.394;6.724;2023-07-13T05:24:16;6.85;;;2.35;;
81591;SDS011;71014;53.394;6.724;2023-07-13T05:26:42;9.82;;;2.22;;
81591;SDS011;71014;53.394;6.724;2023-07-13T05:29:08;9.55;;;2.97;;
81591;SDS011;71014;53.394;6.724;2023-07-13T05:31:34;7.50;;;2.67;;
81591;SDS011;71014;53.394;6.724;2023-07-13T05:34:00;9.52;;;3.00;;
81591;SDS011;71014;53.394;6.724;2023-07-13T05:36:26;9.75;;;2.72;;
81591;SDS011;71014;53.394;6.724;2023-07-13T05:38:53;9.95;;;2.65;;
81591;SDS011;71014;53.394;6.724;2023-07-13T05:41:19;8.25;;;2.67;;
81591;SDS011;71014;53.394;6.724;2023-07-13T05:43:45;7.70;;;2.50;;
81591;SDS011;71014;53.394;6.724;2023-07-13T05:46:11;9.77;;;3.65;;
81591;SDS011;71014;53.394;6.724;2023-07-13T05:48:37;11.40;;;2.50;;
81591;SDS011;71014;53.394;6.724;2023-07-13T05:51:03;11.10;;;2.63;;
81591;SDS011;71014;53.394;6.724;2023-07-13T05:53:29;8.68;;;2.40;;
81591;SDS011;71014;53.394;6.724;2023-07-13T05:55:55;5.07;;;1.90;;
81591;SDS011;71014;53.394;6.724;2023-07-13T05:58:22;9.75;;;2.40;;
81591;SDS011;71014;53.394;6.724;2023-07-13T06:00:57;5.43;;;2.15;;
81591;SDS011;71014;53.394;6.724;2023-07-13T06:03:24;6.78;;;2.50;;
81591;SDS011;71014;53.394;6.724;2023-07-13T06:05:50;7.65;;;2.25;;
81591;SDS011;71014;53.394;6.724;2023-07-13T06:08:16;6.05;;;1.90;;
81591;SDS011;71014;53.394;6.724;2023-07-13T06:10:42;7.35;;;2.10;;
81591;SDS011;71014;53.394;6.724;2023-07-13T06:13:08;5.80;;;2.75;;
81591;SDS011;71014;53.394;6.724;2023-07-13T06:15:34;4.10;;;2.08;;
81591;SDS011;71014;53.394;6.724;2023-07-13T06:18:00;8.50;;;2.80;;
81591;SDS011;71014;53.394;6.724;2023-07-13T06:20:26;5.00;;;2.05;;
81591;SDS011;71014;53.394;6.724;2023-07-13T06:22:54;8.75;;;2.10;;
81591;SDS011;71014;53.394;6.724;2023-07-13T06:25:20;4.63;;;1.83;;
81591;SDS011;71014;53.394;6.724;2023-07-13T06:27:46;6.32;;;1.88;;
81591;SDS011;71014;53.394;6.724;2023-07-13T06:30:12;4.57;;;1.92;;
81591;SDS011;71014;53.394;6.724;2023-07-13T06:32:38;3.50;;;1.40;;
81591;SDS011;71014;53.394;6.724;2023-07-13T06:35:04;4.43;;;2.35;;
81591;SDS011;71014;53.394;6.724;2023-07-13T06:37:30;7.82;;;1.98;;
81591;SDS011;71014;53.394;6.724;2023-07-13T06:39:58;4.80;;;1.23;;
81591;SDS011;71014;53.394;6.724;2023-07-13T06:42:24;6.43;;;2.10;;
81591;SDS011;71014;53.394;6.724;2023-07-13T06:44:50;6.55;;;1.35;;
81591;SDS011;71014;53.394;6.724;2023-07-13T06:47:17;5.05;;;2.42;;
81591;SDS011;71014;53.394;6.724;2023-07-13T06:49:43;6.38;;;1.38;;
81591;SDS011;71014;53.394;6.724;2023-07-13T06:52:09;7.30;;;1.73;;
81591;SDS011;71014;53.394;6.724;2023-07-13T06:54:35;4.45;;;1.42;;
81591;SDS011;71014;53.394;6.724;2023-07-13T06:57:01;4.90;;;1.38;;
81591;SDS011;71014;53.394;6.724;2023-07-13T06:59:28;7.38;;;2.05;;
81591;SDS011;71014;53.394;6.724;2023-07-13T07:01:54;4.97;;;1.58;;
81591;SDS011;71014;53.394;6.724;2023-07-13T07:04:20;2.40;;;1.40;;
81591;SDS011;71014;53.394;6.724;2023-07-13T07:06:46;5.25;;;1.42;;
81591;SDS011;71014;53.394;6.724;2023-07-13T07:09:12;2.75;;;1.30;;
81591;SDS011;71014;53.394;6.724;2023-07-13T07:11:38;2.90;;;1.33;;
81591;SDS011;71014;53.394;6.724;2023-07-13T07:14:04;5.13;;;1.73;;
81591;SDS011;71014;53.394;6.724;2023-07-13T07:16:30;4.38;;;1.40;;
81591;SDS011;71014;53.394;6.724;2023-07-13T07:21:23;4.10;;;1.52;;
81591;SDS011;71014;53.394;6.724;2023-07-13T07:23:49;3.33;;;1.30;;
81591;SDS011;71014;53.394;6.724;2023-07-13T07:26:15;3.13;;;1.55;;
81591;SDS011;71014;53.394;6.724;2023-07-13T07:28:41;4.20;;;1.40;;
81591;SDS011;71014;53.394;6.724;2023-07-13T07:31:07;5.30;;;1.75;;
81591;SDS011;71014;53.394;6.724;2023-07-13T07:33:34;3.00;;;1.50;;
81591;SDS011;71014;53.394;6.724;2023-07-13T07:36:00;2.38;;;1.20;;
81591;SDS011;71014;53.394;6.724;2023-07-13T07:38:26;3.05;;;1.00;;
81591;SDS011;71014;53.394;6.724;2023-07-13T07:40:52;6.00;;;1.42;;
81591;SDS011;71014;53.394;6.724;2023-07-13T07:43:18;4.53;;;1.35;;
81591;SDS011;71014;53.394;6.724;2023-07-13T07:45:44;3.10;;;1.55;;
81591;SDS011;71014;53.394;6.724;2023-07-13T07:50:37;3.72;;;1.02;;
81591;SDS011;71014;53.394;6.724;2023-07-13T07:53:04;2.80;;;1.27;;
81591;SDS011;71014;53.394;6.724;2023-07-13T07:55:33;4.85;;;1.20;;
81591;SDS011;71014;53.394;6.724;2023-07-13T07:57:59;2.80;;;0.90;;
81591;SDS011;71014;53.394;6.724;2023-07-13T08:00:25;2.47;;;0.85;;
81591;SDS011;71014;53.394;6.724;2023-07-13T08:02:52;4.00;;;0.90;;
81591;SDS011;71014;53.394;6.724;2023-07-13T08:05:18;2.38;;;0.98;;
81591;SDS011;71014;53.394;6.724;2023-07-13T08:07:44;1.00;;;0.90;;
81591;SDS011;71014;53.394;6.724;2023-07-13T08:10:10;6.10;;;1.17;;
81591;SDS011;71014;53.394;6.724;2023-07-13T08:12:36;2.92;;;1.40;;
81591;SDS011;71014;53.394;6.724;2023-07-13T08:15:03;2.05;;;1.00;;
81591;SDS011;71014;53.394;6.724;2023-07-13T08:17:29;1.75;;;1.10;;
81591;SDS011;71014;53.394;6.724;2023-07-13T08:19:56;2.15;;;1.00;;
81591;SDS011;71014;53.394;6.724;2023-07-13T08:22:22;4.22;;;0.90;;
81591;SDS011;71014;53.394;6.724;2023-07-13T08:24:48;2.30;;;1.02;;
81591;SDS011;71014;53.394;6.724;2023-07-13T08:27:21;5.90;;;1.10;;
81591;SDS011;71014;53.394;6.724;2023-07-13T08:29:47;2.13;;;1.00;;
81591;SDS011;71014;53.394;6.724;2023-07-13T08:32:13;4.53;;;1.65;;
81591;SDS011;71014;53.394;6.724;2023-07-13T08:34:40;2.03;;;1.00;;
81591;SDS011;71014;53.394;6.724;2023-07-13T08:37:06;2.25;;;1.30;;
81591;SDS011;71014;53.394;6.724;2023-07-13T08:39:32;0.80;;;0.80;;
81591;SDS011;71014;53.394;6.724;2023-07-13T08:42:00;2.13;;;1.00;;
81591;SDS011;71014;53.394;6.724;2023-07-13T08:44:37;5.32;;;1.52;;
81591;SDS011;71014;53.394;6.724;2023-07-13T08:47:05;3.95;;;1.00;;
81591;SDS011;71014;53.394;6.724;2023-07-13T08:49:32;2.72;;;1.20;;
81591;SDS011;71014;53.394;6.724;2023-07-13T08:52:04;3.03;;;1.27;;
81591;SDS011;71014;53.394;6.724;2023-07-13T08:56:58;3.85;;;1.45;;
81591;SDS011;71014;53.394;6.724;2023-07-13T08:59:27;3.35;;;1.30;;
81591;SDS011;71014;53.394;6.724;2023-07-13T09:02:42;3.78;;;1.33;;
81591;SDS011;71014;53.394;6.724;2023-07-13T09:09:47;4.82;;;1.20;;
81591;SDS011;71014;53.394;6.724;2023-07-13T09:13:01;4.93;;;1.40;;
81591;SDS011;71014;53.394;6.724;2023-07-13T09:15:04;2.80;;;1.50;;
81591;SDS011;71014;53.394;6.724;2023-07-13T09:17:35;1.25;;;1.00;;
81591;SDS011;71014;53.394;6.724;2023-07-13T09:20:04;1.95;;;1.00;;
81591;SDS011;71014;53.394;6.724;2023-07-13T09:22:33;2.97;;;1.38;;
81591;SDS011;71014;53.394;6.724;2023-07-13T09:27:44;2.80;;;1.17;;
81591;SDS011;71014;53.394;6.724;2023-07-13T09:32:45;7.03;;;2.03;;
81591;SDS011;71014;53.394;6.724;2023-07-13T09:35:16;5.00;;;2.00;;
81591;SDS011;71014;53.394;6.724;2023-07-13T09:37:43;6.63;;;1.80;;
81591;SDS011;71014;53.394;6.724;2023-07-13T09:40:11;4.10;;;1.77;;
81591;SDS011;71014;53.394;6.724;2023-07-13T09:42:38;3.67;;;1.95;;
81591;SDS011;71014;53.394;6.724;2023-07-13T09:45:05;8.30;;;1.85;;
81591;SDS011;71014;53.394;6.724;2023-07-13T09:47:32;7.55;;;2.05;;
81591;SDS011;71014;53.394;6.724;2023-07-13T09:50:07;4.35;;;1.90;;
81591;SDS011;71014;53.394;6.724;2023-07-13T09:52:45;6.05;;;1.80;;
81591;SDS011;71014;53.394;6.724;2023-07-13T09:55:34;4.45;;;2.20;;
81591;SDS011;71014;53.394;6.724;2023-07-13T09:58:03;3.40;;;1.92;;
81591;SDS011;71014;53.394;6.724;2023-07-13T10:00:30;5.20;;;2.40;;
81591;SDS011;71014;53.394;6.724;2023-07-13T10:03:00;6.50;;;2.08;;
81591;SDS011;71014;53.394;6.724;2023-07-13T10:05:28;2.83;;;1.98;;
81591;SDS011;71014;53.394;6.724;2023-07-13T10:08:02;7.28;;;2.20;;
81591;SDS011;71014;53.394;6.724;2023-07-13T10:10:28;3.15;;;1.23;;
81591;SDS011;71014;53.394;6.724;2023-07-13T10:12:55;3.33;;;1.25;;
81591;SDS011;71014;53.394;6.724;2023-07-13T10:15:22;3.22;;;1.40;;
81591;SDS011;71014;53.394;6.724;2023-07-13T10:17:51;2.28;;;1.00;;
81591;SDS011;71014;53.394;6.724;2023-07-13T10:20:17;2.58;;;0.90;;
81591;SDS011;71014;53.394;6.724;2023-07-13T10:22:53;3.25;;;1.17;;
81591;SDS011;71014;53.394;6.724;2023-07-13T10:25:22;3.75;;;1.13;;
81591;SDS011;71014;53.394;6.724;2023-07-13T10:27:55;1.25;;;1.00;;
81591;SDS011;71014;53.394;6.724;2023-07-13T10:30:27;4.25;;;1.33;;
81591;SDS011;71014;53.394;6.724;2023-07-13T10:32:57;2.15;;;0.95;;
81591;SDS011;71014;53.394;6.724;2023-07-13T10:35:24;2.15;;;1.17;;
81591;SDS011;71014;53.394;6.724;2023-07-13T10:38:33;2.97;;;0.93;;
81591;SDS011;71014;53.394;6.724;2023-07-13T10:40:45;0.68;;;0.50;;
81591;SDS011;71014;53.394;6.724;2023-07-13T10:43:16;4.97;;;0.73;;
81591;SDS011;71014;53.394;6.724;2023-07-13T10:45:45;1.40;;;0.70;;
81591;SDS011;71014;53.394;6.724;2023-07-13T10:48:15;2.53;;;0.70;;
81591;SDS011;71014;53.394;6.724;2023-07-13T10:50:42;1.00;;;0.50;;
81591;SDS011;71014;53.394;6.724;2023-07-13T10:58:20;2.05;;;0.60;;
81591;SDS011;71014;53.394;6.724;2023-07-13T11:00:51;2.58;;;0.88;;
81591;SDS011;71014;53.394;6.724;2023-07-13T11:03:19;1.80;;;0.50;;
81591;SDS011;71014;53.394;6.724;2023-07-13T11:05:49;1.75;;;1.25;;
81591;SDS011;71014;53.394;6.724;2023-07-13T11:21:41;2.08;;;0.90;;
81591;SDS011;71014;53.394;6.724;2023-07-13T11:24:28;1.58;;;0.60;;
81591;SDS011;71014;53.394;6.724;2023-07-13T11:26:55;2.10;;;0.68;;
81591;SDS011;71014;53.394;6.724;2023-07-13T11:31:54;1.90;;;0.60;;
81591;SDS011;71014;53.394;6.724;2023-07-13T11:34:25;1.45;;;0.90;;
81591;SDS011;71014;53.394;6.724;2023-07-13T11:36:53;1.52;;;0.90;;
81591;SDS011;71014;53.394;6.724;2023-07-13T11:39:19;1.90;;;1.00;;
81591;SDS011;71014;53.394;6.724;2023-07-13T11:41:53;3.75;;;0.93;;
81591;SDS011;71014;53.394;6.724;2023-07-13T11:44:22;5.53;;;0.90;;
81591;SDS011;71014;53.394;6.724;2023-07-13T11:46:53;1.77;;;0.80;;
81591;SDS011;71014;53.394;6.724;2023-07-13T11:49:20;3.42;;;1.05;;
81591;SDS011;71014;53.394;6.724;2023-07-13T11:51:46;4.07;;;0.90;;
81591;SDS011;71014;53.394;6.724;2023-07-13T11:54:31;2.65;;;1.20;;
81591;SDS011;71014;53.394;6.724;2023-07-13T11:56:59;2.95;;;0.90;;
81591;SDS011;71014;53.394;6.724;2023-07-13T11:59:26;3.90;;;1.30;;
81591;SDS011;71014;53.394;6.724;2023-07-13T12:01:53;3.40;;;1.25;;
81591;SDS011;71014;53.394;6.724;2023-07-13T12:04:21;2.75;;;1.20;;
81591;SDS011;71014;53.394;6.724;2023-07-13T12:06:53;2.90;;;1.02;;
81591;SDS011;71014;53.394;6.724;2023-07-13T12:09:20;3.78;;;1.00;;
81591;SDS011;71014;53.394;6.724;2023-07-13T12:11:50;3.05;;;1.25;;
81591;SDS011;71014;53.394;6.724;2023-07-13T12:14:17;3.85;;;1.27;;
81591;SDS011;71014;53.394;6.724;2023-07-13T12:16:45;3.55;;;0.80;;
81591;SDS011;71014;53.394;6.724;2023-07-13T12:19:16;1.58;;;0.82;;
81591;SDS011;71014;53.394;6.724;2023-07-13T12:21:42;3.92;;;1.10;;
81591;SDS011;71014;53.394;6.724;2023-07-13T12:24:19;2.70;;;1.08;;
81591;SDS011;71014;53.394;6.724;2023-07-13T12:26:50;2.83;;;0.90;;
81591;SDS011;71014;53.394;6.724;2023-07-13T12:29:17;2.33;;;0.82;;
81591;SDS011;71014;53.394;6.724;2023-07-13T12:31:44;3.90;;;1.10;;
81591;SDS011;71014;53.394;6.724;2023-07-13T12:34:18;5.10;;;1.88;;
81591;SDS011;71014;53.394;6.724;2023-07-13T12:39:21;5.43;;;1.40;;
81591;SDS011;71014;53.394;6.724;2023-07-13T12:41:48;5.38;;;1.90;;
81591;SDS011;71014;53.394;6.724;2023-07-13T12:44:16;4.25;;;1.40;;
81591;SDS011;71014;53.394;6.724;2023-07-13T12:46:53;2.10;;;1.20;;
81591;SDS011;71014;53.394;6.724;2023-07-13T12:49:21;3.17;;;1.50;;
81591;SDS011;71014;53.394;6.724;2023-07-13T12:51:49;5.18;;;1.83;;
81591;SDS011;71014;53.394;6.724;2023-07-13T12:54:17;4.65;;;1.63;;
81591;SDS011;71014;53.394;6.724;2023-07-13T12:56:44;3.97;;;2.15;;
81591;SDS011;71014;53.394;6.724;2023-07-13T12:59:15;3.38;;;1.10;;
81591;SDS011;71014;53.394;6.724;2023-07-13T13:01:42;2.95;;;0.90;;
81591;SDS011;71014;53.394;6.724;2023-07-13T13:04:08;2.03;;;1.27;;
81591;SDS011;71014;53.394;6.724;2023-07-13T13:06:36;1.70;;;1.15;;
81591;SDS011;71014;53.394;6.724;2023-07-13T13:09:02;1.92;;;1.65;;
81591;SDS011;71014;53.394;6.724;2023-07-13T13:11:29;3.65;;;1.05;;
81591;SDS011;71014;53.394;6.724;2023-07-13T13:13:55;2.85;;;1.30;;
81591;SDS011;71014;53.394;6.724;2023-07-13T13:18:48;3.03;;;1.10;;
81591;SDS011;71014;53.394;6.724;2023-07-13T13:21:15;2.33;;;1.30;;
81591;SDS011;71014;53.394;6.724;2023-07-13T13:23:41;2.50;;;1.10;;
81591;SDS011;71014;53.394;6.724;2023-07-13T13:26:10;3.17;;;1.13;;
81591;SDS011;71014;53.394;6.724;2023-07-13T13:28:37;2.33;;;1.30;;
81591;SDS011;71014;53.394;6.724;2023-07-13T13:31:03;6.18;;;1.48;;
81591;SDS011;71014;53.394;6.724;2023-07-13T13:33:29;4.82;;;1.98;;
81591;SDS011;71014;53.394;6.724;2023-07-13T13:35:55;4.78;;;1.80;;
81591;SDS011;71014;53.394;6.724;2023-07-13T13:38:28;8.52;;;2.15;;
81591;SDS011;71014;53.394;6.724;2023-07-13T13:40:54;4.20;;;2.22;;
81591;SDS011;71014;53.394;6.724;2023-07-13T13:43:25;9.02;;;1.65;;
81591;SDS011;71014;53.394;6.724;2023-07-13T13:45:52;5.32;;;1.60;;
81591;SDS011;71014;53.394;6.724;2023-07-13T13:48:19;4.10;;;1.70;;
81591;SDS011;71014;53.394;6.724;2023-07-13T13:50:47;5.55;;;1.90;;
81591;SDS011;71014;53.394;6.724;2023-07-13T13:53:13;3.88;;;1.77;;
81591;SDS011;71014;53.394;6.724;2023-07-13T13:55:40;5.78;;;1.27;;
81591;SDS011;71014;53.394;6.724;2023-07-13T13:58:07;5.20;;;1.52;;
81591;SDS011;71014;53.394;6.724;2023-07-13T14:00:34;6.57;;;1.95;;
81591;SDS011;71014;53.394;6.724;2023-07-13T14:03:00;5.85;;;1.73;;
81591;SDS011;71014;53.394;6.724;2023-07-13T14:05:26;6.30;;;1.80;;
81591;SDS011;71014;53.394;6.724;2023-07-13T14:07:53;5.53;;;1.63;;
81591;SDS011;71014;53.394;6.724;2023-07-13T14:10:20;5.13;;;1.67;;
81591;SDS011;71014;53.394;6.724;2023-07-13T14:12:48;3.28;;;1.52;;
81591;SDS011;71014;53.394;6.724;2023-07-13T14:15:21;4.13;;;1.65;;
81591;SDS011;71014;53.394;6.724;2023-07-13T14:17:48;3.88;;;1.52;;
81591;SDS011;71014;53.394;6.724;2023-07-13T14:20:15;6.43;;;2.35;;
81591;SDS011;71014;53.394;6.724;2023-07-13T14:22:41;3.97;;;1.70;;
81591;SDS011;71014;53.394;6.724;2023-07-13T14:25:11;5.55;;;1.58;;
81591;SDS011;71014;53.394;6.724;2023-07-13T14:27:37;5.70;;;1.50;;
81591;SDS011;71014;53.394;6.724;2023-07-13T14:30:07;3.97;;;1.50;;
81591;SDS011;71014;53.394;6.724;2023-07-13T14:32:37;4.50;;;2.00;;
81591;SDS011;71014;53.394;6.724;2023-07-13T14:35:03;3.58;;;1.70;;
81591;SDS011;71014;53.394;6.724;2023-07-13T14:37:29;5.95;;;1.65;;
81591;SDS011;71014;53.394;6.724;2023-07-13T14:39:55;6.28;;;1.50;;
81591;SDS011;71014;53.394;6.724;2023-07-13T14:42:21;5.03;;;1.15;;
81591;SDS011;71014;53.394;6.724;2023-07-13T14:44:47;5.57;;;1.42;;
81591;SDS011;71014;53.394;6.724;2023-07-13T14:47:14;5.80;;;1.80;;
81591;SDS011;71014;53.394;6.724;2023-07-13T14:49:43;4.38;;;1.60;;
81591;SDS011;71014;53.394;6.724;2023-07-13T14:52:11;5.35;;;1.63;;
81591;SDS011;71014;53.394;6.724;2023-07-13T14:54:38;4.85;;;1.70;;
81591;SDS011;71014;53.394;6.724;2023-07-13T14:57:24;4.25;;;1.50;;
81591;SDS011;71014;53.394;6.724;2023-07-13T14:59:50;5.70;;;1.58;;
81591;SDS011;71014;53.394;6.724;2023-07-13T15:04:45;4.43;;;1.48;;
81591;SDS011;71014;53.394;6.724;2023-07-13T15:07:11;4.00;;;1.38;;
81591;SDS011;71014;53.394;6.724;2023-07-13T15:09:40;3.47;;;1.50;;
81591;SDS011;71014;53.394;6.724;2023-07-13T15:12:07;3.58;;;1.50;;
81591;SDS011;71014;53.394;6.724;2023-07-13T15:14:33;3.28;;;1.52;;
81591;SDS011;71014;53.394;6.724;2023-07-13T15:16:59;3.80;;;1.40;;
81591;SDS011;71014;53.394;6.724;2023-07-13T15:19:25;6.75;;;1.85;;
81591;SDS011;71014;53.394;6.724;2023-07-13T15:21:52;3.80;;;1.33;;
81591;SDS011;71014;53.394;6.724;2023-07-13T15:24:20;3.33;;;1.40;;
81591;SDS011;71014;53.394;6.724;2023-07-13T15:26:46;5.25;;;1.60;;
81591;SDS011;71014;53.394;6.724;2023-07-13T15:29:14;2.50;;;1.38;;
81591;SDS011;71014;53.394;6.724;2023-07-13T15:31:40;3.47;;;1.40;;
81591;SDS011;71014;53.394;6.724;2023-07-13T15:34:12;2.72;;;1.40;;
81591;SDS011;71014;53.394;6.724;2023-07-13T15:36:39;5.28;;;1.60;;
81591;SDS011;71014;53.394;6.724;2023-07-13T15:39:05;5.95;;;1.77;;
81591;SDS011;71014;53.394;6.724;2023-07-13T15:41:31;2.13;;;1.20;;
81591;SDS011;71014;53.394;6.724;2023-07-13T15:43:58;6.15;;;1.73;;
81591;SDS011;71014;53.394;6.724;2023-07-13T15:46:24;4.00;;;1.40;;
81591;SDS011;71014;53.394;6.724;2023-07-13T15:48:51;3.13;;;1.20;;
81591;SDS011;71014;53.394;6.724;2023-07-13T15:51:28;3.28;;;1.30;;
81591;SDS011;71014;53.394;6.724;2023-07-13T15:53:58;4.35;;;1.50;;